Time;durP1;ratioP1;P1;durP2;ratioP2;P2;SDS_P1;SDS_P2;PMS_P1;PMS_P2;Temp;Humidity;BMP_temperature;BMP_pressure;BME280_temperature;BME280_humidity;BME280_pressure;Samples;Min_cycle;Max_cycle;Signal;HPM_P1;HPM_P2
2024/01/19 00:02:10;;;;;;;9.80;2.88;;;14.30;96.70;;;;;;5071919;28;20048;-75
2024/01/19 00:04:39;;;;;;;12.10;2.88;;;14.20;96.70;;;;;;5080621;28;20059;-75
2024/01/19 00:07:09;;;;;;;10.23;2.63;;;14.10;96.70;;;;;;5073106;28;20075;-75
2024/01/19 00:09:40;;;;;;;10.48;2.70;;;14.00;96.70;;;;;;5082985;28;20056;-75
2024/01/19 00:12:09;;;;;;;8.82;2.88;;;13.90;96.70;;;;;;5078616;28;20547;-75
2024/01/19 00:14:38;;;;;;;14.60;2.60;;;13.80;96.70;;;;;;5089280;28;20048;-75
2024/01/19 00:17:10;;;;;;;7.30;2.40;;;13.80;96.70;;;;;;5090010;28;20768;-75
2024/01/19 00:19:52;;;;;;;14.38;4.35;;;13.70;96.70;;;;;;5055606;28;20059;-75
2024/01/19 00:22:22;;;;;;;12.38;2.72;;;13.70;96.70;;;;;;5054105;28;20057;-75
2024/01/19 00:24:53;;;;;;;13.73;3.00;;;13.60;96.70;;;;;;5072745;28;20052;-75
2024/01/19 00:27:22;;;;;;;9.35;3.33;;;13.60;96.70;;;;;;5080785;28;20056;-75
2024/01/19 00:29:51;;;;;;;9.68;3.63;;;13.50;96.70;;;;;;5080805;28;20079;-75
2024/01/19 00:32:21;;;;;;;12.45;3.63;;;13.50;96.70;;;;;;5072244;28;20048;-74
2024/01/19 00:34:55;;;;;;;9.10;4.43;;;13.60;96.70;;;;;;5076658;28;20070;-75
2024/01/19 00:37:23;;;;;;;10.63;3.65;;;13.50;96.70;;;;;;5086523;28;20063;-75
2024/01/19 00:39:54;;;;;;;9.52;2.95;;;13.50;96.70;;;;;;5057932;28;20052;-75
2024/01/19 00:42:22;;;;;;;11.63;2.78;;;13.50;96.70;;;;;;5080563;28;20056;-75
2024/01/19 00:44:54;;;;;;;13.43;3.65;;;13.50;96.70;;;;;;5076284;28;20417;-75
2024/01/19 00:47:22;;;;;;;10.80;2.88;;;13.50;96.70;;;;;;5077103;28;20071;-75
2024/01/19 00:49:50;;;;;;;13.07;2.70;;;13.50;96.70;;;;;;5068599;28;20059;-75
2024/01/19 00:52:22;;;;;;;12.45;3.10;;;13.50;96.70;;;;;;5079880;28;20048;-75
2024/01/19 00:54:50;;;;;;;7.82;2.30;;;13.60;96.70;;;;;;5076874;28;20077;-75
2024/01/19 00:57:21;;;;;;;10.90;3.05;;;13.60;96.70;;;;;;5082623;28;20070;-74
2024/01/19 00:59:49;;;;;;;7.53;2.33;;;13.60;96.70;;;;;;5082539;28;20059;-75
2024/01/19 01:02:19;;;;;;;12.15;2.55;;;13.70;96.70;;;;;;5075709;28;20052;-74
2024/01/19 01:04:47;;;;;;;10.63;2.58;;;13.70;96.70;;;;;;5076699;28;20048;-75
2024/01/19 01:07:16;;;;;;;7.65;2.40;;;13.70;96.70;;;;;;5085229;28;20807;-75
2024/01/19 01:09:47;;;;;;;9.63;3.15;;;13.70;96.70;;;;;;5086150;28;20131;-75
2024/01/19 01:12:15;;;;;;;7.53;2.13;;;13.70;96.70;;;;;;5085150;28;20056;-74
2024/01/19 01:14:47;;;;;;;9.38;2.38;;;13.70;96.70;;;;;;5078787;28;20056;-75
2024/01/19 01:17:16;;;;;;;8.35;2.22;;;13.70;96.70;;;;;;5074003;28;20124;-73
2024/01/19 01:19:51;;;;;;;7.30;2.50;;;13.70;96.70;;;;;;5074028;28;20059;-76
2024/01/19 01:22:20;;;;;;;9.73;2.70;;;13.80;96.70;;;;;;5086214;28;20059;-74
2024/01/19 01:24:48;;;;;;;10.43;2.20;;;13.80;96.70;;;;;;5077701;28;20620;-75
2024/01/19 01:27:17;;;;;;;6.85;1.90;;;13.80;96.70;;;;;;5077873;28;20056;-75
2024/01/19 01:30:07;;;;;;;7.40;1.90;;;13.80;96.70;;;;;;5074947;28;20127;-75
2024/01/19 01:32:36;;;;;;;8.77;2.08;;;13.80;96.70;;;;;;5081898;28;20052;-75
2024/01/19 01:35:05;;;;;;;9.10;1.98;;;13.90;96.70;;;;;;5077567;28;20067;-75
2024/01/19 01:37:50;;;;;;;7.00;2.00;;;13.90;96.70;;;;;;5072067;28;20519;-75
2024/01/19 01:40:19;;;;;;;9.02;1.88;;;13.90;96.70;;;;;;5084979;28;20063;-75
2024/01/19 01:42:48;;;;;;;7.30;1.50;;;14.00;96.70;;;;;;5085045;28;20040;-76
2024/01/19 01:45:18;;;;;;;5.80;1.30;;;14.00;96.70;;;;;;5085011;28;20060;-75
2024/01/19 01:47:58;;;;;;;6.05;1.83;;;14.10;96.70;;;;;;5079906;28;20067;-74
2024/01/19 01:50:28;;;;;;;8.68;2.20;;;14.10;96.70;;;;;;5078337;28;20063;-75
2024/01/19 01:52:57;;;;;;;11.05;1.90;;;14.10;96.70;;;;;;5074205;28;20056;-75
2024/01/19 01:55:25;;;;;;;7.95;1.83;;;14.20;96.70;;;;;;5081742;28;20099;-75
2024/01/19 01:58:01;;;;;;;7.28;1.95;;;14.30;96.70;;;;;;5066782;28;20064;-74
2024/01/19 02:00:33;;;;;;;7.65;2.00;;;14.30;96.70;;;;;;5076648;28;20056;-75
2024/01/19 02:03:03;;;;;;;10.52;1.58;;;14.40;96.70;;;;;;5086343;28;20056;-75
2024/01/19 02:05:34;;;;;;;8.77;1.52;;;14.40;96.70;;;;;;5086122;28;20075;-75
2024/01/19 02:08:03;;;;;;;9.40;1.58;;;14.40;96.70;;;;;;5077396;28;20055;-74
2024/01/19 02:10:32;;;;;;;14.75;1.90;;;14.50;96.70;;;;;;5076096;28;20056;-75
2024/01/19 02:13:00;;;;;;;7.63;1.83;;;14.50;96.70;;;;;;5075265;28;20048;-75
2024/01/19 02:15:30;;;;;;;10.60;1.88;;;14.50;96.70;;;;;;5067365;28;20488;-75
2024/01/19 02:17:59;;;;;;;11.30;2.40;;;14.50;96.70;;;;;;5089231;28;20056;-75
2024/01/19 02:20:27;;;;;;;9.00;2.10;;;14.60;96.70;;;;;;5083767;28;20060;-75
2024/01/19 02:22:56;;;;;;;12.15;2.42;;;14.70;96.70;;;;;;5077616;28;20049;-75
2024/01/19 02:25:27;;;;;;;13.82;2.65;;;14.80;96.70;;;;;;5077205;28;20804;-75
2024/01/19 02:27:57;;;;;;;16.13;2.63;;;15.00;96.70;;;;;;5080410;28;20065;-76
2024/01/19 02:30:26;;;;;;;11.32;2.33;;;15.20;96.70;;;;;;5075745;28;20556;-75
2024/01/19 02:32:55;;;;;;;11.77;2.63;;;15.20;96.70;;;;;;5084034;28;20646;-76
2024/01/19 02:35:23;;;;;;;11.48;2.60;;;15.30;96.70;;;;;;5085979;28;20083;-76
2024/01/19 02:37:51;;;;;;;13.40;2.17;;;15.30;96.70;;;;;;5077292;28;20051;-76
2024/01/19 02:40:20;;;;;;;12.68;2.17;;;15.30;96.70;;;;;;5077670;28;21029;-76
2024/01/19 02:42:49;;;;;;;14.63;2.90;;;15.30;96.70;;;;;;5076382;28;20044;-76
2024/01/19 02:45:18;;;;;;;15.63;2.38;;;15.30;96.70;;;;;;5076211;28;20055;-75
2024/01/19 02:47:46;;;;;;;14.65;1.85;;;15.30;96.70;;;;;;5074951;28;20329;-75
2024/01/19 02:50:15;;;;;;;10.55;2.67;;;15.30;96.70;;;;;;5047694;28;20060;-75
2024/01/19 02:52:43;;;;;;;13.00;2.42;;;15.30;96.70;;;;;;5065660;28;20556;-75
2024/01/19 02:55:12;;;;;;;11.13;2.47;;;15.30;96.70;;;;;;5048053;28;20614;-75
2024/01/19 02:57:40;;;;;;;16.48;2.47;;;15.20;96.70;;;;;;5066569;28;20541;-75
2024/01/19 03:00:12;;;;;;;14.93;2.80;;;15.20;96.70;;;;;;5064689;28;20118;-76
2024/01/19 03:02:41;;;;;;;12.57;3.33;;;15.30;96.70;;;;;;5065220;28;20481;-75
2024/01/19 03:05:09;;;;;;;16.35;3.33;;;15.40;96.70;;;;;;5047578;28;20516;-75
2024/01/19 03:07:38;;;;;;;14.25;2.63;;;15.40;96.70;;;;;;5063371;28;20592;-75
2024/01/19 03:10:07;;;;;;;11.50;2.35;;;15.40;96.70;;;;;;5065345;28;20576;-75
2024/01/19 03:12:36;;;;;;;14.38;3.17;;;15.30;96.70;;;;;;5064909;28;20543;-74
2024/01/19 03:15:05;;;;;;;13.23;2.60;;;15.30;96.70;;;;;;5063561;28;20632;-75
2024/01/19 03:17:37;;;;;;;17.27;2.70;;;15.20;96.70;;;;;;5064995;28;20044;-75
2024/01/19 03:20:06;;;;;;;12.98;2.67;;;15.20;96.70;;;;;;5065115;28;20060;-75
2024/01/19 03:22:35;;;;;;;14.40;2.58;;;15.10;96.70;;;;;;5064580;28;20044;-75
2024/01/19 03:25:03;;;;;;;13.57;2.72;;;15.10;96.70;;;;;;5067010;28;20106;-75
2024/01/19 03:28:10;;;;;;;15.30;2.93;;;15.20;96.70;;;;;;5053355;28;20682;-74
2024/01/19 03:30:39;;;;;;;16.27;2.95;;;15.10;96.70;;;;;;5065148;28;20054;-76
2024/01/19 03:34:16;;;;;;;16.83;3.05;;;15.10;96.70;;;;;;5064869;28;20121;-75
2024/01/19 03:36:46;;;;;;;14.90;2.45;;;15.10;96.70;;;;;;5063375;28;20773;-75
2024/01/19 03:39:15;;;;;;;15.82;3.10;;;15.10;96.70;;;;;;5064324;28;20084;-75
2024/01/19 03:41:43;;;;;;;14.15;2.90;;;15.10;96.70;;;;;;5064996;28;20729;-75
2024/01/19 03:44:12;;;;;;;13.38;2.53;;;15.00;96.70;;;;;;5063687;28;20056;-74
2024/01/19 03:46:42;;;;;;;13.23;2.40;;;15.00;96.70;;;;;;5067882;28;20106;-75
2024/01/19 03:49:11;;;;;;;13.57;2.65;;;15.00;96.70;;;;;;5064407;28;20056;-75
2024/01/19 03:52:20;;;;;;;14.82;2.63;;;15.10;96.70;;;;;;5072701;28;20056;-75
2024/01/19 03:54:48;;;;;;;12.38;3.35;;;15.10;96.70;;;;;;5065798;28;20060;-75
2024/01/19 03:57:16;;;;;;;13.38;3.10;;;15.20;96.70;;;;;;5063553;28;20051;-75
2024/01/19 03:59:44;;;;;;;15.95;2.78;;;15.20;96.70;;;;;;5077086;28;20739;-74
2024/01/19 04:02:12;;;;;;;13.27;2.58;;;15.20;96.70;;;;;;5072443;28;20043;-74
2024/01/19 04:04:41;;;;;;;16.25;2.75;;;15.20;96.70;;;;;;5071969;28;20136;-74
2024/01/19 04:07:09;;;;;;;16.48;3.65;;;15.20;96.70;;;;;;5078913;28;20865;-74
2024/01/19 04:09:41;;;;;;;11.88;2.25;;;15.30;96.70;;;;;;5070458;28;20041;-73
2024/01/19 04:12:12;;;;;;;9.30;1.98;;;15.30;96.70;;;;;;5072613;28;20091;-74
2024/01/19 04:14:44;;;;;;;13.48;2.70;;;15.30;96.70;;;;;;5075720;28;20052;-74
2024/01/19 04:17:13;;;;;;;12.85;2.30;;;15.40;96.70;;;;;;5076498;28;20498;-74
2024/01/19 04:19:44;;;;;;;17.10;2.55;;;15.40;96.70;;;;;;5073435;28;20088;-74
2024/01/19 04:22:13;;;;;;;13.45;2.75;;;15.50;96.70;;;;;;5063745;28;20049;-74
2024/01/19 04:24:47;;;;;;;12.07;2.05;;;15.50;96.70;;;;;;5071598;28;20056;-75
2024/01/19 04:27:15;;;;;;;16.30;3.17;;;15.50;96.70;;;;;;5073822;28;20053;-74
2024/01/19 04:29:44;;;;;;;14.82;2.55;;;15.50;96.70;;;;;;5068954;28;20537;-74
2024/01/19 04:32:12;;;;;;;13.68;2.88;;;15.50;96.70;;;;;;5066955;28;20106;-73
2024/01/19 04:34:40;;;;;;;16.67;3.28;;;15.50;96.70;;;;;;5078908;28;20082;-74
2024/01/19 04:37:18;;;;;;;17.60;3.40;;;15.50;96.70;;;;;;5075229;28;20052;-73
2024/01/19 04:39:51;;;;;;;15.85;2.78;;;15.50;96.70;;;;;;5077443;28;20060;-74
2024/01/19 04:42:20;;;;;;;10.93;2.50;;;15.40;96.70;;;;;;5045469;28;20048;-74
2024/01/19 04:44:51;;;;;;;13.43;2.30;;;15.40;96.70;;;;;;5068516;28;20056;-74
2024/01/19 04:47:20;;;;;;;15.85;3.17;;;15.40;96.70;;;;;;5086982;28;20554;-74
2024/01/19 04:49:51;;;;;;;12.43;2.70;;;15.40;96.70;;;;;;5082637;28;20055;-73
2024/01/19 04:52:20;;;;;;;17.45;2.78;;;15.30;96.70;;;;;;5075931;28;20052;-73
2024/01/19 04:54:51;;;;;;;15.02;2.95;;;15.30;96.70;;;;;;5087757;28;20059;-71
2024/01/19 04:57:20;;;;;;;17.30;3.53;;;15.20;96.70;;;;;;5085038;28;20059;-73
2024/01/19 04:59:49;;;;;;;14.07;3.20;;;15.20;96.70;;;;;;5069662;28;20578;-73
2024/01/19 05:02:19;;;;;;;16.95;3.28;;;15.10;96.70;;;;;;5086191;28;20083;-73
2024/01/19 05:04:51;;;;;;;16.15;3.90;;;15.10;96.70;;;;;;5071546;28;20167;-73
2024/01/19 05:07:22;;;;;;;20.05;3.80;;;15.00;96.70;;;;;;5077427;28;20518;-73
2024/01/19 05:09:57;;;;;;;15.15;2.95;;;15.00;96.70;;;;;;5087284;28;20092;-73
2024/01/19 05:12:29;;;;;;;20.10;4.13;;;15.00;96.70;;;;;;5082903;28;20052;-73
2024/01/19 05:14:58;;;;;;;17.23;4.10;;;15.00;96.70;;;;;;5068612;28;20087;-73
2024/01/19 05:17:27;;;;;;;20.15;3.67;;;14.90;96.70;;;;;;5085272;28;20055;-73
2024/01/19 05:19:56;;;;;;;16.70;3.50;;;14.90;96.70;;;;;;5068110;28;20053;-73
2024/01/19 05:22:25;;;;;;;18.75;3.90;;;14.90;96.70;;;;;;5079105;28;20057;-73
2024/01/19 05:24:55;;;;;;;22.05;4.05;;;14.90;96.70;;;;;;5075936;28;20420;-73
2024/01/19 05:27:24;;;;;;;26.73;4.75;;;14.90;96.70;;;;;;5077250;28;20067;-73
2024/01/19 05:29:53;;;;;;;20.20;4.30;;;14.90;96.70;;;;;;5075726;28;20100;-73
2024/01/19 05:32:22;;;;;;;24.52;5.65;;;14.90;96.70;;;;;;5074869;28;20048;-74
2024/01/19 05:34:53;;;;;;;26.00;3.92;;;14.90;96.70;;;;;;5082387;28;20776;-72
2024/01/19 05:37:22;;;;;;;22.98;5.25;;;14.90;96.70;;;;;;5081208;28;20131;-72
2024/01/19 05:39:52;;;;;;;19.13;4.82;;;14.90;96.70;;;;;;5088352;28;20056;-74
2024/01/19 05:42:23;;;;;;;25.35;5.18;;;14.80;96.70;;;;;;5077053;28;20048;-73
2024/01/19 05:44:52;;;;;;;28.58;4.90;;;14.90;96.70;;;;;;5081235;28;20052;-72
2024/01/19 05:47:22;;;;;;;19.65;4.13;;;14.80;96.70;;;;;;5082213;28;20660;-72
2024/01/19 05:49:52;;;;;;;20.83;4.20;;;14.80;96.70;;;;;;5074966;28;20060;-74
2024/01/19 05:52:21;;;;;;;22.45;4.47;;;14.80;96.70;;;;;;5067157;28;20048;-74
2024/01/19 05:54:52;;;;;;;31.92;5.22;;;14.80;96.70;;;;;;5066296;28;20048;-73
2024/01/19 05:57:25;;;;;;;25.67;4.72;;;14.80;96.70;;;;;;5077049;28;20102;-73
2024/01/19 05:59:54;;;;;;;21.55;4.68;;;14.70;96.70;;;;;;5086120;28;20055;-74
2024/01/19 06:02:24;;;;;;;20.55;4.43;;;14.70;96.70;;;;;;5085039;28;20105;-73
2024/01/19 06:04:53;;;;;;;18.63;3.70;;;14.70;96.70;;;;;;5077225;28;20158;-73
2024/01/19 06:07:23;;;;;;;15.98;3.17;;;14.60;96.70;;;;;;5085777;28;20056;-73
2024/01/19 06:09:52;;;;;;;17.73;3.28;;;14.60;96.70;;;;;;5070768;28;20060;-74
2024/01/19 06:12:22;;;;;;;19.52;4.10;;;14.60;96.70;;;;;;5077147;28;20061;-73
2024/01/19 06:14:52;;;;;;;26.35;4.68;;;14.60;96.70;;;;;;5051192;28;20059;-73
2024/01/19 06:17:21;;;;;;;19.25;3.72;;;14.60;96.70;;;;;;5070518;28;20529;-73
2024/01/19 06:19:50;;;;;;;21.38;3.83;;;14.60;96.70;;;;;;5084434;28;20429;-73
2024/01/19 06:22:19;;;;;;;18.05;3.88;;;14.60;96.70;;;;;;5074917;28;20059;-72
2024/01/19 06:24:52;;;;;;;16.70;3.75;;;14.70;96.70;;;;;;5075482;28;20060;-72
2024/01/19 06:27:21;;;;;;;16.20;3.42;;;14.60;96.70;;;;;;5079580;28;20172;-73
2024/01/19 06:29:52;;;;;;;20.80;3.70;;;14.60;96.70;;;;;;5084445;28;20071;-73
2024/01/19 06:32:22;;;;;;;19.65;3.30;;;14.60;96.70;;;;;;5082305;28;20234;-73
2024/01/19 06:34:51;;;;;;;18.25;4.10;;;14.60;96.70;;;;;;5067998;28;20508;-72
2024/01/19 06:37:20;;;;;;;15.02;3.20;;;14.50;96.70;;;;;;5078337;28;20140;-73
2024/01/19 06:39:49;;;;;;;12.88;3.60;;;14.50;96.70;;;;;;5061004;28;20063;-73
2024/01/19 06:42:30;;;;;;;17.40;4.18;;;14.50;96.70;;;;;;5081542;28;20082;-72
2024/01/19 06:45:02;;;;;;;14.18;3.00;;;14.50;96.70;;;;;;5074031;28;20061;-72
2024/01/19 06:47:32;;;;;;;13.65;2.85;;;14.40;96.70;;;;;;5082212;28;20056;-73
2024/01/19 06:50:01;;;;;;;12.80;3.10;;;14.40;96.70;;;;;;5061437;28;20052;-73
2024/01/19 06:52:30;;;;;;;13.80;2.78;;;14.50;96.70;;;;;;5074972;28;20102;-73
2024/01/19 06:54:58;;;;;;;11.80;2.50;;;14.50;96.70;;;;;;5089923;28;20066;-73
2024/01/19 06:57:29;;;;;;;11.88;2.60;;;14.50;96.70;;;;;;5068845;28;20056;-73
2024/01/19 06:59:58;;;;;;;14.05;2.38;;;14.50;96.70;;;;;;5084887;28;20308;-73
2024/01/19 07:02:30;;;;;;;10.52;2.38;;;14.50;96.70;;;;;;5085151;28;20596;-72
2024/01/19 07:04:59;;;;;;;9.15;2.17;;;14.50;96.70;;;;;;5068652;28;20467;-73
2024/01/19 07:07:28;;;;;;;11.75;2.63;;;14.40;96.70;;;;;;5071513;28;20052;-73
2024/01/19 07:09:57;;;;;;;8.25;2.17;;;14.40;96.70;;;;;;5082510;28;20051;-73
2024/01/19 07:12:26;;;;;;;9.32;2.30;;;14.40;96.70;;;;;;5076438;28;20052;-73
2024/01/19 07:14:55;;;;;;;7.85;2.03;;;14.50;96.70;;;;;;5076424;28;20064;-73
2024/01/19 07:17:23;;;;;;;9.45;2.20;;;14.50;96.70;;;;;;5077215;28;20071;-73
2024/01/19 07:19:58;;;;;;;18.60;3.17;;;14.50;96.70;;;;;;5084307;28;20067;-73
2024/01/19 07:22:27;;;;;;;10.35;2.35;;;14.40;96.70;;;;;;5083235;28;20097;-73
2024/01/19 07:24:56;;;;;;;13.18;3.13;;;14.40;96.70;;;;;;5080293;28;20518;-73
2024/01/19 07:27:25;;;;;;;11.55;2.50;;;14.40;96.70;;;;;;5086188;28;20056;-73
2024/01/19 07:29:54;;;;;;;13.02;3.25;;;14.40;96.70;;;;;;5078437;28;20139;-73
2024/01/19 07:32:25;;;;;;;15.90;4.97;;;14.50;96.70;;;;;;5083206;28;20048;-73
2024/01/19 07:34:56;;;;;;;14.20;3.65;;;14.50;96.70;;;;;;5081951;28;20060;-73
2024/01/19 07:37:25;;;;;;;12.60;3.08;;;14.60;96.70;;;;;;5082508;28;20062;-73
2024/01/19 07:39:54;;;;;;;10.40;2.45;;;14.70;96.70;;;;;;5082408;28;20056;-73
2024/01/19 07:42:22;;;;;;;12.25;2.35;;;14.70;96.70;;;;;;5076931;28;20048;-73
2024/01/19 07:44:51;;;;;;;11.80;2.60;;;14.80;96.70;;;;;;5076426;28;20509;-73
2024/01/19 07:47:20;;;;;;;11.73;3.17;;;14.80;96.70;;;;;;5084224;28;20280;-72
2024/01/19 07:49:49;;;;;;;12.27;2.78;;;14.80;96.70;;;;;;5084148;28;20691;-73
2024/01/19 07:52:20;;;;;;;10.35;2.20;;;14.80;96.70;;;;;;5083646;28;20716;-72
2024/01/19 07:54:51;;;;;;;12.43;2.22;;;14.80;96.70;;;;;;5085129;28;20059;-72
2024/01/19 07:57:22;;;;;;;15.35;3.08;;;14.80;96.70;;;;;;5070390;28;20067;-72
2024/01/19 07:59:51;;;;;;;14.75;3.88;;;14.90;96.70;;;;;;5086845;28;20156;-72
2024/01/19 08:02:21;;;;;;;15.15;2.72;;;14.90;96.70;;;;;;5065390;28;20052;-71
2024/01/19 08:04:51;;;;;;;14.05;3.35;;;14.90;96.70;;;;;;5070429;28;20076;-71
2024/01/19 08:07:24;;;;;;;14.38;3.28;;;14.90;96.70;;;;;;5070154;28;20083;-70
2024/01/19 08:09:58;;;;;;;12.13;2.72;;;14.90;96.70;;;;;;5069308;28;20105;-71
2024/01/19 08:12:28;;;;;;;18.85;3.38;;;14.90;96.70;;;;;;5075014;28;20158;-71
2024/01/19 08:14:58;;;;;;;22.17;4.05;;;14.90;96.70;;;;;;5077740;28;20585;-72
2024/01/19 08:17:28;;;;;;;14.10;2.80;;;14.90;96.70;;;;;;5085794;28;20049;-72
2024/01/19 08:19:57;;;;;;;18.30;3.33;;;14.90;96.70;;;;;;5071099;28;20045;-71
2024/01/19 08:22:28;;;;;;;18.35;4.07;;;14.90;96.70;;;;;;5086836;28;20056;-72
2024/01/19 08:24:58;;;;;;;18.27;3.88;;;14.90;96.70;;;;;;5078116;28;20070;-72
2024/01/19 08:27:27;;;;;;;18.08;3.78;;;14.90;96.70;;;;;;5084437;28;20154;-72
2024/01/19 08:29:56;;;;;;;21.52;4.68;;;14.90;96.70;;;;;;5081135;28;20053;-72
2024/01/19 08:32:24;;;;;;;17.33;3.47;;;14.90;96.70;;;;;;5079223;28;20062;-71
2024/01/19 08:34:53;;;;;;;20.27;4.00;;;15.00;96.70;;;;;;5078183;28;20056;-72
2024/01/19 08:37:26;;;;;;;22.80;3.55;;;15.00;96.70;;;;;;5080375;28;20056;-72
2024/01/19 08:39:58;;;;;;;19.63;2.90;;;15.10;96.70;;;;;;5070977;28;20456;-72
2024/01/19 08:42:27;;;;;;;18.02;4.40;;;15.10;96.70;;;;;;5087643;28;20143;-72
2024/01/19 08:44:56;;;;;;;23.25;4.97;;;15.10;96.70;;;;;;5086961;28;20051;-72
2024/01/19 08:47:25;;;;;;;20.77;4.55;;;15.10;96.70;;;;;;5069755;28;20060;-72
2024/01/19 08:49:53;;;;;;;17.83;4.10;;;15.10;96.70;;;;;;5064468;28;20057;-72
2024/01/19 08:52:22;;;;;;;19.60;4.65;;;15.20;96.70;;;;;;5059957;28;20056;-72
2024/01/19 08:54:53;;;;;;;15.98;3.72;;;15.20;96.70;;;;;;5059129;28;20048;-72
2024/01/19 08:57:23;;;;;;;18.92;3.72;;;15.20;96.70;;;;;;5050595;28;20060;-72
2024/01/19 08:59:52;;;;;;;18.83;4.13;;;15.30;96.70;;;;;;5066477;28;20129;-72
2024/01/19 09:02:22;;;;;;;16.10;3.80;;;15.30;96.70;;;;;;5066921;28;20080;-72
2024/01/19 09:04:54;;;;;;;18.35;3.83;;;15.30;96.70;;;;;;5067446;28;20052;-72
2024/01/19 09:07:23;;;;;;;21.73;4.20;;;15.40;96.70;;;;;;5058535;28;20048;-72
2024/01/19 09:09:54;;;;;;;15.50;3.60;;;15.40;96.70;;;;;;5065188;28;20660;-71
2024/01/19 09:12:23;;;;;;;19.88;4.53;;;15.50;96.70;;;;;;5057856;28;20155;-72
2024/01/19 09:14:53;;;;;;;14.88;3.47;;;15.50;96.70;;;;;;5056000;28;20045;-73
2024/01/19 09:17:21;;;;;;;16.88;3.65;;;15.60;96.70;;;;;;5062931;28;20060;-72
2024/01/19 09:19:51;;;;;;;15.75;3.53;;;15.60;96.70;;;;;;5059499;28;20053;-72
2024/01/19 09:22:20;;;;;;;18.55;3.88;;;15.60;96.70;;;;;;5064521;28;20048;-72
2024/01/19 09:24:49;;;;;;;19.85;4.05;;;15.70;96.70;;;;;;5055439;28;20060;-72
2024/01/19 09:27:21;;;;;;;17.85;3.42;;;15.70;96.70;;;;;;5067837;28;20084;-72
2024/01/19 09:29:51;;;;;;;15.32;3.38;;;15.70;96.70;;;;;;5065220;28;20087;-72
2024/01/19 09:32:21;;;;;;;16.88;3.90;;;15.80;96.70;;;;;;5055754;28;20054;-72
2024/01/19 09:34:51;;;;;;;13.95;3.65;;;15.90;96.70;;;;;;5057867;28;20068;-72
2024/01/19 09:37:20;;;;;;;16.85;2.95;;;15.90;96.70;;;;;;5056827;28;20068;-72
2024/01/19 09:39:51;;;;;;;13.73;2.83;;;16.00;96.70;;;;;;5060413;28;20048;-72
2024/01/19 09:42:27;;;;;;;12.65;2.95;;;16.10;96.70;;;;;;5065148;28;20517;-71
2024/01/19 09:45:02;;;;;;;12.10;2.75;;;16.20;96.70;;;;;;5058568;28;20072;-72
2024/01/19 09:47:47;;;;;;;15.65;3.28;;;16.30;96.70;;;;;;5066922;28;20060;-72
2024/01/19 09:50:19;;;;;;;12.98;2.90;;;16.30;96.70;;;;;;5074265;28;20725;-72
2024/01/19 09:52:55;;;;;;;12.82;2.75;;;16.30;96.70;;;;;;5078127;28;20144;-72
2024/01/19 09:55:26;;;;;;;11.80;1.98;;;16.40;96.70;;;;;;5076390;28;20052;-73
2024/01/19 09:57:58;;;;;;;10.60;2.28;;;16.40;96.70;;;;;;5073562;28;20615;-72
2024/01/19 10:00:28;;;;;;;12.77;2.25;;;16.40;96.70;;;;;;5079747;28;20057;-71
2024/01/19 10:03:02;;;;;;;11.10;2.63;;;16.30;96.70;;;;;;5077286;28;20534;-73
2024/01/19 10:05:34;;;;;;;15.45;3.05;;;16.30;96.70;;;;;;5082831;28;20056;-75
2024/01/19 10:08:06;;;;;;;11.10;2.88;;;16.40;96.70;;;;;;5064955;28;20064;-72
2024/01/19 10:10:42;;;;;;;15.88;2.33;;;16.40;96.70;;;;;;5076106;28;20073;-72
2024/01/19 10:13:13;;;;;;;12.60;2.47;;;16.40;96.70;;;;;;5084863;28;20186;-72
2024/01/19 10:15:45;;;;;;;14.90;2.90;;;16.40;96.70;;;;;;5078863;28;20093;-72
2024/01/19 10:18:15;;;;;;;15.35;3.15;;;16.50;96.70;;;;;;5054559;28;20143;-72
2024/01/19 10:20:51;;;;;;;13.45;2.65;;;16.40;96.70;;;;;;5089423;28;20052;-72
2024/01/19 10:23:21;;;;;;;11.70;3.08;;;16.50;96.70;;;;;;5072885;28;20080;-72
2024/01/19 10:25:51;;;;;;;15.85;2.70;;;16.50;96.70;;;;;;5077729;28;20060;-72
2024/01/19 10:28:31;;;;;;;14.65;2.92;;;16.30;96.70;;;;;;5084131;28;20079;-72
2024/01/19 10:31:23;;;;;;;13.07;2.83;;;16.30;96.70;;;;;;5076089;28;20074;-72
2024/01/19 10:33:54;;;;;;;16.20;3.22;;;16.30;96.70;;;;;;5078491;28;20105;-72
2024/01/19 10:36:26;;;;;;;11.70;2.65;;;16.40;96.70;;;;;;5067345;28;20061;-72
2024/01/19 10:39:14;;;;;;;13.85;2.70;;;16.20;96.70;;;;;;5075994;28;20505;-72
2024/01/19 10:41:44;;;;;;;19.15;3.20;;;16.10;96.70;;;;;;5066621;28;20076;-72
2024/01/19 10:44:16;;;;;;;14.50;2.92;;;16.10;96.70;;;;;;5067807;28;20048;-72
2024/01/19 10:46:50;;;;;;;16.83;2.80;;;16.00;96.70;;;;;;5073291;28;20056;-72
2024/01/19 10:49:19;;;;;;;13.30;2.58;;;16.00;96.70;;;;;;5086331;28;20113;-72
2024/01/19 10:51:49;;;;;;;15.85;3.72;;;15.90;96.70;;;;;;5079128;28;20049;-72
2024/01/19 10:54:25;;;;;;;16.73;3.22;;;15.70;96.70;;;;;;5076539;28;20049;-72
2024/01/19 10:57:05;;;;;;;14.55;2.80;;;15.70;96.70;;;;;;5067818;28;20067;-73
2024/01/19 10:59:37;;;;;;;13.82;2.70;;;15.70;96.70;;;;;;5081955;28;20059;-72
2024/01/19 11:02:06;;;;;;;20.58;4.40;;;15.60;96.70;;;;;;5084124;28;20054;-73
2024/01/19 11:04:37;;;;;;;17.80;3.70;;;15.60;96.70;;;;;;5049820;28;20131;-74
2024/01/19 11:10:40;;;;;;;12.52;2.53;;;15.60;96.70;;;;;;5075446;28;20059;-74
2024/01/19 11:13:15;;;;;;;15.18;3.63;;;15.60;96.70;;;;;;5066993;28;20063;-75
2024/01/19 11:15:53;;;;;;;20.15;4.32;;;15.60;96.70;;;;;;5087015;28;20044;-73
2024/01/19 11:18:23;;;;;;;9.77;2.60;;;15.60;96.70;;;;;;5072413;28;20063;-75
2024/01/19 11:20:54;;;;;;;20.63;3.42;;;15.50;96.70;;;;;;5079127;28;20120;-73
2024/01/19 11:23:25;;;;;;;14.10;2.22;;;15.50;96.70;;;;;;5076714;28;20421;-72
2024/01/19 11:26:12;;;;;;;12.57;2.65;;;15.50;96.70;;;;;;5058581;28;20079;-75
2024/01/19 11:28:52;;;;;;;13.30;3.20;;;15.50;96.70;;;;;;5070317;28;20056;-75
2024/01/19 11:31:30;;;;;;;15.77;3.28;;;15.40;96.70;;;;;;5084621;28;20059;-72
2024/01/19 11:33:59;;;;;;;21.73;3.35;;;15.30;96.70;;;;;;5081904;28;20052;-74
2024/01/19 11:36:57;;;;;;;13.48;2.72;;;15.40;96.70;;;;;;5065790;28;20051;-74
2024/01/19 11:39:44;;;;;;;23.27;4.10;;;15.30;96.70;;;;;;5039196;28;20084;-74
2024/01/19 11:42:44;;;;;;;17.90;3.30;;;15.30;96.70;;;;;;5051837;28;20059;-74
2024/01/19 11:45:39;;;;;;;15.23;3.20;;;15.30;96.70;;;;;;5075974;28;20080;-71
2024/01/19 11:48:41;;;;;;;13.63;3.00;;;15.40;96.70;;;;;;5067539;28;20159;-72
2024/01/19 11:51:35;;;;;;;18.73;3.22;;;15.50;96.70;;;;;;5075932;28;20143;-74
2024/01/19 11:54:04;;;;;;;16.50;2.88;;;15.50;96.70;;;;;;5068587;28;20129;-74
2024/01/19 11:56:35;;;;;;;15.90;2.97;;;15.40;96.70;;;;;;5083471;28;20052;-74
2024/01/19 11:59:07;;;;;;;13.63;2.45;;;15.40;96.70;;;;;;5083510;28;20113;-74
2024/01/19 12:01:40;;;;;;;17.50;3.92;;;15.40;96.70;;;;;;5074239;28;20098;-74
2024/01/19 12:04:14;;;;;;;16.63;3.05;;;15.50;96.70;;;;;;5080686;28;20048;-75
2024/01/19 12:06:44;;;;;;;15.18;2.97;;;15.50;96.70;;;;;;5075377;28;20056;-75
2024/01/19 12:09:15;;;;;;;14.73;3.47;;;15.50;96.70;;;;;;5082913;28;20052;-72
2024/01/19 12:11:46;;;;;;;14.50;2.70;;;15.40;96.70;;;;;;5083327;28;20051;-72
2024/01/19 12:14:16;;;;;;;17.05;3.20;;;15.40;96.70;;;;;;5070497;28;20075;-72
2024/01/19 12:16:47;;;;;;;15.85;2.88;;;15.40;96.70;;;;;;5064992;28;20060;-71
2024/01/19 12:19:22;;;;;;;14.80;3.28;;;15.40;96.70;;;;;;5079893;28;20056;-71
2024/01/19 12:21:57;;;;;;;15.77;3.00;;;15.40;96.70;;;;;;5073752;28;20061;-71
2024/01/19 12:24:29;;;;;;;15.43;2.30;;;15.50;96.70;;;;;;5064450;28;20076;-72
2024/01/19 12:27:01;;;;;;;16.75;3.42;;;15.50;96.70;;;;;;5064143;28;20056;-71
2024/01/19 12:29:36;;;;;;;15.35;2.58;;;15.70;96.70;;;;;;5064481;28;20100;-71
2024/01/19 12:32:09;;;;;;;13.48;2.60;;;15.80;96.70;;;;;;5052968;28;20067;-71
2024/01/19 12:34:41;;;;;;;12.57;3.08;;;15.80;96.70;;;;;;5054586;28;20996;-72
2024/01/19 12:37:19;;;;;;;15.45;3.40;;;15.70;96.70;;;;;;5077475;28;20084;-71
2024/01/19 12:39:48;;;;;;;15.40;3.13;;;15.60;96.70;;;;;;5083045;28;20580;-71
2024/01/19 12:42:18;;;;;;;12.50;2.17;;;15.50;96.70;;;;;;5070038;28;20056;-71
2024/01/19 12:44:47;;;;;;;14.88;2.85;;;15.40;96.70;;;;;;5073187;28;20057;-71
2024/01/19 12:47:18;;;;;;;14.45;2.97;;;15.30;96.70;;;;;;5074844;28;20059;-71
2024/01/19 12:49:50;;;;;;;13.48;3.58;;;15.30;96.70;;;;;;5063079;28;20068;-72
2024/01/19 12:52:31;;;;;;;16.83;2.95;;;15.40;96.70;;;;;;5068993;28;20056;-70
2024/01/19 12:55:01;;;;;;;15.18;3.92;;;15.50;96.70;;;;;;5082031;28;20052;-71
2024/01/19 12:57:30;;;;;;;14.32;2.90;;;15.40;96.70;;;;;;5069904;28;20063;-70
2024/01/19 13:00:07;;;;;;;12.57;2.92;;;15.50;96.70;;;;;;5082892;28;20048;-71
2024/01/19 13:02:35;;;;;;;13.30;2.60;;;15.50;96.70;;;;;;5074453;28;20697;-72
2024/01/19 13:05:17;;;;;;;15.50;2.72;;;15.60;96.70;;;;;;5087672;28;20080;-71